Sonora Municipal Airport
KSOA : now visible

Airfield :











YOU CAN JOIN US ON...

 
LOGIN :

Register | Disclaimer

   EN    FR    IT 

 









Legend :    VFR   Marginal VFR   IFR   Intensive IFR   Very Intensive IFR
Visi :
Ceiling :
>= 8 km
>= 3000ft
5 to 8 km
1000 to 3000 ft
1500m to 5 km
500 to 1000 ft
800 to 1500m
200 to 500 ft
< 800m
< 200 ft
Symbols :   Thunderstorms  Fog  Heavy snow  Heavy precipitations  Wind > 20 kt






- Airport Elevation : 2140 ft


KSOA - Sonora Municipal

CURRENT METAR :
  • 172155Z AUTO 19008KT 10SM CLR 28/05 A2982 RMK AO2

EXPIRED METARs :
  • 172135Z AUTO 17007G12KT 10SM CLR 28/05 A2983 RMK AO2
  • 172115Z AUTO 20006G12KT 10SM CLR 28/05 A2983 RMK AO2
  • 172055Z AUTO VRB05G13KT 10SM CLR 27/05 A2984 RMK AO2
  • 172035Z AUTO 19009KT CLR 27/06 A2985 RMK AO2
  • 172015Z AUTO 17007G14KT 10SM CLR 27/07 A2985 RMK AO2
  • 171955Z AUTO VRB05G14KT 10SM CLR 26/08 A2986 RMK AO2
  • 171935Z AUTO 20007G13KT 10SM CLR 26/09 A2987 RMK AO2
  • 171915Z AUTO 19008KT 10SM CLR 26/09 A2989 RMK AO2

TAF KSOA
Valid from the 17 at 18:00 until the 18 at 18:00 UTC


171738Z 1718/1818 21008G15KT P6SM FEW250
FM180900 VRB05KT P6SM BKN015
FM181200 VRB05KT 6SM BR BKN007
FM181700 02008KT P6SM OVC015



MET'MAP, your aeronautical weather chart ! - Copyright ORBIFLY December 2007 - Disclaimer

ORBIFLY MET'MAP TEAM :

Programming & Development : Alexandra Zaïnal
Concept & original design : Baudouin d'Aumeries
Assistance for programming : Marc-Olivier Méhu
Technical & hardware support : Manuel Goepfert

Contact : metmap@orbifly.com




SOURCES & CREDITS :

   NOAA       Earth
Advisory